createdAt,value
2023-05-18T00:01:17.869Z,14.35
2023-05-18T00:03:47.525Z,14.28
2023-05-18T00:06:16.509Z,14.23
2023-05-18T00:08:44.849Z,14.15
2023-05-18T00:11:13.298Z,14.14
2023-05-18T00:13:41.769Z,14.09
2023-05-18T00:16:12.185Z,14.08
2023-05-18T00:18:42.063Z,14.06
2023-05-18T00:21:10.616Z,14.03
2023-05-18T00:23:39.736Z,14.02
2023-05-18T00:26:08.217Z,14.01
2023-05-18T00:28:36.604Z,14.03
2023-05-18T00:31:06.619Z,14.05
2023-05-18T00:33:35.116Z,14.04
2023-05-18T00:36:05.196Z,14.05
2023-05-18T00:38:33.860Z,14.03
2023-05-18T00:41:02.267Z,14.03
2023-05-18T00:43:30.771Z,14.02
2023-05-18T00:45:59.218Z,14.02
2023-05-18T00:48:27.813Z,13.97
2023-05-18T00:50:56.180Z,13.93
2023-05-18T00:53:26.580Z,13.90
2023-05-18T00:55:55.006Z,13.91
2023-05-18T00:58:23.615Z,13.90
2023-05-18T01:00:57.529Z,13.90
2023-05-18T01:03:26.454Z,13.92
2023-05-18T01:05:55.878Z,13.93
2023-05-18T01:08:27.727Z,13.96
2023-05-18T01:11:02.400Z,13.95
2023-05-18T01:13:42.318Z,13.96
2023-05-18T01:16:14.062Z,13.96
2023-05-18T01:18:49.316Z,13.96
2023-05-18T01:21:26.493Z,13.96
2023-05-18T01:24:06.060Z,13.94
2023-05-18T01:26:41.945Z,13.95
2023-05-18T01:29:11.686Z,13.99
2023-05-18T01:31:41.208Z,13.97
2023-05-18T01:34:10.017Z,13.98
2023-05-18T01:36:38.406Z,13.97
2023-05-18T01:39:07.425Z,13.96
2023-05-18T01:41:40.708Z,13.96
2023-05-18T01:44:17.520Z,13.96
2023-05-18T01:46:54.733Z,13.94
2023-05-18T01:49:32.306Z,13.95
2023-05-18T01:52:05.759Z,14.02
2023-05-18T01:54:35.811Z,14.07
2023-05-18T01:57:09.723Z,14.12
2023-05-18T01:59:39.156Z,14.16
2023-05-18T02:02:08.189Z,14.21
2023-05-18T02:04:37.943Z,14.23
2023-05-18T02:07:06.502Z,14.24
2023-05-18T02:09:34.949Z,14.27
2023-05-18T02:12:03.363Z,14.29
2023-05-18T02:14:33.953Z,14.32
2023-05-18T02:17:02.501Z,14.33
2023-05-18T02:19:31.788Z,14.35
2023-05-18T02:22:00.233Z,14.36
2023-05-18T02:24:28.979Z,14.37
2023-05-18T02:26:58.474Z,14.35
2023-05-18T02:29:27.005Z,14.36
2023-05-18T02:31:56.886Z,14.33
2023-05-18T02:34:27.694Z,14.30
2023-05-18T02:37:03.748Z,14.29
2023-05-18T02:39:34.077Z,14.26
2023-05-18T02:42:02.614Z,14.24
2023-05-18T02:44:31.134Z,14.22
2023-05-18T02:47:01.184Z,14.21
2023-05-18T02:49:29.680Z,14.19
2023-05-18T02:51:58.080Z,14.15
2023-05-18T02:54:26.551Z,14.12
2023-05-18T02:56:57.065Z,14.08
2023-05-18T02:59:37.846Z,14.01
2023-05-18T03:02:08.220Z,14.00
2023-05-18T03:04:37.973Z,13.97
2023-05-18T03:07:08.165Z,13.97
2023-05-18T03:09:36.684Z,13.99
2023-05-18T03:12:05.961Z,14.02
2023-05-18T03:14:34.428Z,13.99
2023-05-18T03:17:06.159Z,13.98
2023-05-18T03:19:36.816Z,13.94
2023-05-18T03:22:06.059Z,13.92
2023-05-18T03:24:40.880Z,13.91
2023-05-18T03:27:17.495Z,13.90
2023-05-18T03:29:47.509Z,13.92
2023-05-18T03:32:16.079Z,13.94
2023-05-18T03:34:47.813Z,13.94
2023-05-18T03:37:17.237Z,13.94
2023-05-18T03:39:46.235Z,13.93
2023-05-18T03:42:14.951Z,13.95
2023-05-18T03:44:43.657Z,13.94
2023-05-18T03:47:12.808Z,13.92
2023-05-18T03:49:41.455Z,13.86
2023-05-18T03:52:15.385Z,13.86
2023-05-18T03:54:44.367Z,13.83
2023-05-18T03:57:12.688Z,13.79
2023-05-18T03:59:41.234Z,13.74
2023-05-18T04:02:09.805Z,13.72
2023-05-18T04:04:42.059Z,13.72
2023-05-18T04:07:13.654Z,13.73
2023-05-18T04:09:44.432Z,13.71
2023-05-18T04:12:13.044Z,13.68
2023-05-18T04:14:42.614Z,13.67
2023-05-18T04:17:11.260Z,13.69
2023-05-18T04:19:39.767Z,13.68
2023-05-18T04:22:11.612Z,13.69
2023-05-18T04:24:41.446Z,13.68
2023-05-18T04:27:12.296Z,13.69
2023-05-18T04:29:44.576Z,13.66
2023-05-18T04:32:13.130Z,13.64
2023-05-18T04:34:42.689Z,13.65
2023-05-18T04:37:13.153Z,13.63
2023-05-18T04:39:42.394Z,13.64
2023-05-18T04:42:14.210Z,13.65
2023-05-18T04:44:43.906Z,13.68
2023-05-18T04:47:12.664Z,13.70
2023-05-18T04:49:41.173Z,13.72
2023-05-18T04:52:10.558Z,13.74
2023-05-18T04:54:41.343Z,13.74
2023-05-18T04:57:10.222Z,13.73
2023-05-18T04:59:38.775Z,13.78
2023-05-18T05:02:07.477Z,13.80
2023-05-18T05:04:36.033Z,13.83
2023-05-18T05:07:04.434Z,13.82
2023-05-18T05:09:32.802Z,13.86
2023-05-18T05:12:02.735Z,13.84
2023-05-18T05:14:31.285Z,13.90
2023-05-18T05:16:59.728Z,13.89
2023-05-18T05:19:29.152Z,13.87
2023-05-18T05:21:57.761Z,13.89
2023-05-18T05:24:26.418Z,13.91
2023-05-18T05:26:54.776Z,13.93
2023-05-18T05:29:26.555Z,13.98
2023-05-18T05:31:55.551Z,14.01
2023-05-18T05:34:24.190Z,14.00
2023-05-18T05:36:52.657Z,14.03
2023-05-18T05:39:21.043Z,14.06
2023-05-18T05:41:50.338Z,14.07
2023-05-18T05:44:18.866Z,14.07
2023-05-18T05:46:49.370Z,14.13
2023-05-18T05:49:18.248Z,14.14
2023-05-18T05:51:46.682Z,14.19
2023-05-18T05:54:15.768Z,14.22
2023-05-18T05:56:45.069Z,14.26
2023-05-18T05:59:14.502Z,14.24
2023-05-18T06:01:43.123Z,14.26
2023-05-18T06:04:13.442Z,14.32
2023-05-18T06:06:42.364Z,14.32
2023-05-18T06:09:11.886Z,14.34
2023-05-18T06:11:40.718Z,14.34
2023-05-18T06:14:09.552Z,14.36
2023-05-18T06:16:38.569Z,14.38
2023-05-18T06:19:07.219Z,14.41
2023-05-18T06:21:37.303Z,14.44
2023-05-18T06:24:06.472Z,14.49
2023-05-18T06:26:45.448Z,14.51
2023-05-18T06:29:28.363Z,14.50
2023-05-18T06:32:15.475Z,14.50
2023-05-18T06:34:47.436Z,14.49
2023-05-18T06:37:17.519Z,14.52
2023-05-18T06:39:45.999Z,14.52
2023-05-18T06:42:14.381Z,14.54
2023-05-18T06:44:52.795Z,14.54
2023-05-18T06:47:24.759Z,14.55
2023-05-18T06:49:53.268Z,14.54
2023-05-18T06:52:26.331Z,14.55
2023-05-18T06:54:56.275Z,14.60
2023-05-18T06:57:27.124Z,14.63
2023-05-18T06:59:57.105Z,14.67
2023-05-18T07:02:28.951Z,14.69
2023-05-18T07:04:59.409Z,14.70
2023-05-18T07:07:45.215Z,14.76
2023-05-18T07:10:16.330Z,14.76
2023-05-18T07:12:44.855Z,14.81
2023-05-18T07:15:13.387Z,14.82
2023-05-18T07:17:43.139Z,14.85
2023-05-18T07:20:11.947Z,14.89
2023-05-18T07:22:41.781Z,14.98
2023-05-18T07:25:14.209Z,15.04
2023-05-18T07:27:46.297Z,15.05
2023-05-18T07:30:15.458Z,15.12
2023-05-18T07:32:45.478Z,15.20
2023-05-18T07:35:16.914Z,15.33
2023-05-18T07:37:47.003Z,15.41
2023-05-18T07:40:15.483Z,15.48
2023-05-18T07:42:44.485Z,15.58
2023-05-18T07:45:13.617Z,15.77
2023-05-18T07:47:42.063Z,16.09
2023-05-18T07:50:11.446Z,16.37
2023-05-18T07:52:39.796Z,16.51
2023-05-18T07:55:10.405Z,16.57
2023-05-18T07:57:38.891Z,16.67
2023-05-18T08:00:10.431Z,16.77
2023-05-18T08:02:41.895Z,16.81
2023-05-18T08:05:11.177Z,16.87
2023-05-18T08:07:39.785Z,16.93
2023-05-18T08:10:10.427Z,17.05
2023-05-18T08:12:39.865Z,17.14
2023-05-18T08:15:09.984Z,17.12
2023-05-18T08:17:38.405Z,17.10
2023-05-18T08:20:08.494Z,17.17
2023-05-18T08:22:36.890Z,17.35
2023-05-18T08:25:05.763Z,17.50
2023-05-18T08:27:35.597Z,17.64
2023-05-18T08:30:04.222Z,17.72
2023-05-18T08:32:33.134Z,17.82
2023-05-18T08:35:01.569Z,17.87
2023-05-18T08:37:31.274Z,17.91
2023-05-18T08:40:00.898Z,18.05
2023-05-18T08:42:48.396Z,18.08
2023-05-18T08:45:25.446Z,18.10
2023-05-18T08:47:57.422Z,18.12
2023-05-18T08:50:27.716Z,18.24
2023-05-18T08:52:57.520Z,18.38
2023-05-18T08:55:27.779Z,18.14
2023-05-18T08:58:00.475Z,18.42
2023-05-18T09:00:30.905Z,18.41
2023-05-18T09:03:00.043Z,18.56
2023-05-18T09:05:28.817Z,18.70
2023-05-18T09:07:57.918Z,18.78
2023-05-18T09:10:27.270Z,18.92
2023-05-18T09:12:58.010Z,19.04
2023-05-18T09:15:27.878Z,19.11
2023-05-18T09:17:57.722Z,19.22
2023-05-18T09:20:27.581Z,19.34
2023-05-18T09:22:57.068Z,19.51
2023-05-18T09:25:26.177Z,19.58
2023-05-18T09:27:55.882Z,19.72
2023-05-18T09:30:26.551Z,19.82
2023-05-18T09:32:55.125Z,19.91
2023-05-18T09:35:26.701Z,19.99
2023-05-18T09:37:55.759Z,20.14
2023-05-18T09:40:30.830Z,20.37
2023-05-18T09:42:59.254Z,20.54
2023-05-18T09:45:28.917Z,20.68
2023-05-18T09:47:57.664Z,20.85
2023-05-18T09:50:27.557Z,20.98
2023-05-18T09:52:57.661Z,21.10
2023-05-18T09:55:26.216Z,21.20
2023-05-18T09:57:54.680Z,21.21
2023-05-18T10:00:25.578Z,21.30
2023-05-18T10:02:54.271Z,21.32
2023-05-18T10:05:23.756Z,21.26
2023-05-18T10:07:54.193Z,21.12
2023-05-18T10:10:24.692Z,20.88
2023-05-18T10:12:53.694Z,20.62
2023-05-18T10:15:24.734Z,20.48
2023-05-18T10:17:58.049Z,20.39
2023-05-18T10:20:27.104Z,20.23
2023-05-18T10:22:59.987Z,20.13
2023-05-18T10:25:30.539Z,20.14
2023-05-18T10:28:05.433Z,20.26
2023-05-18T10:30:36.200Z,20.52
2023-05-18T10:33:14.001Z,20.63
2023-05-18T10:35:50.823Z,20.58
2023-05-18T10:38:25.130Z,20.62
2023-05-18T10:40:55.251Z,20.66
2023-05-18T10:43:27.768Z,20.80
2023-05-18T10:45:58.183Z,20.92
2023-05-18T10:48:29.158Z,21.05
2023-05-18T10:50:59.481Z,21.01
2023-05-18T10:53:30.686Z,21.05
2023-05-18T10:55:59.207Z,21.07
2023-05-18T10:58:29.248Z,20.86
2023-05-18T11:01:00.039Z,20.78
2023-05-18T11:03:29.200Z,20.90
2023-05-18T11:06:08.975Z,21.03
2023-05-18T11:08:47.870Z,21.15
2023-05-18T11:11:19.282Z,21.24
2023-05-18T11:13:50.691Z,21.59
2023-05-18T11:16:20.112Z,21.79
2023-05-18T11:18:49.582Z,21.86
2023-05-18T11:21:22.781Z,21.94
2023-05-18T11:24:24.254Z,22.07
2023-05-18T11:26:54.352Z,22.01
2023-05-18T11:29:25.911Z,21.96
2023-05-18T11:31:56.303Z,21.80
2023-05-18T11:34:47.829Z,21.72
2023-05-18T11:37:17.219Z,21.68
2023-05-18T11:39:59.769Z,21.67
2023-05-18T11:42:34.499Z,21.59
2023-05-18T11:45:08.306Z,21.46
2023-05-18T11:47:38.121Z,21.41
2023-05-18T11:50:09.176Z,21.31
2023-05-18T11:52:47.267Z,21.23
2023-05-18T11:55:19.453Z,21.17
2023-05-18T11:57:52.536Z,21.10
2023-05-18T12:00:22.439Z,20.72
2023-05-18T12:02:52.926Z,20.90
2023-05-18T12:05:22.452Z,20.73
2023-05-18T12:07:54.895Z,20.65
2023-05-18T12:10:25.200Z,20.67
2023-05-18T12:12:54.261Z,20.64
2023-05-18T12:15:24.119Z,20.43
2023-05-18T12:17:53.240Z,20.59
2023-05-18T12:20:25.299Z,20.68
2023-05-18T12:22:56.071Z,20.73
2023-05-18T12:25:28.130Z,20.73
2023-05-18T12:27:57.958Z,20.56
2023-05-18T12:30:35.273Z,20.81
2023-05-18T12:33:05.167Z,20.89
2023-05-18T12:35:34.053Z,20.93
2023-05-18T12:38:03.086Z,21.03
2023-05-18T12:40:44.867Z,21.11
2023-05-18T12:43:14.194Z,21.21
2023-05-18T12:45:45.734Z,21.20
2023-05-18T12:48:15.601Z,21.06
2023-05-18T12:50:48.917Z,21.22
2023-05-18T12:53:18.295Z,21.16
2023-05-18T12:55:57.891Z,21.12
2023-05-18T12:58:26.730Z,21.04
2023-05-18T13:00:55.169Z,21.07
2023-05-18T13:03:24.641Z,21.15
2023-05-18T13:06:04.785Z,21.11
2023-05-18T13:08:35.632Z,21.05
2023-05-18T13:11:13.434Z,21.03
2023-05-18T13:14:04.756Z,21.10
2023-05-18T13:16:35.039Z,21.02
2023-05-18T13:19:05.402Z,21.05
2023-05-18T13:21:34.361Z,21.16
2023-05-18T13:24:03.276Z,21.50
2023-05-18T13:26:33.292Z,21.63
2023-05-18T13:29:01.846Z,21.57
2023-05-18T13:31:30.754Z,21.40
2023-05-18T13:33:59.262Z,21.22
2023-05-18T13:36:29.775Z,21.17
2023-05-18T13:38:58.373Z,21.28
2023-05-18T13:41:27.314Z,21.27
2023-05-18T13:43:57.221Z,21.22
2023-05-18T13:46:26.080Z,21.22
2023-05-18T13:48:54.581Z,21.12
2023-05-18T13:51:23.024Z,21.00
2023-05-18T13:53:51.501Z,20.80
2023-05-18T13:56:19.987Z,20.79
2023-05-18T13:58:48.349Z,20.84
2023-05-18T14:01:18.800Z,20.87
2023-05-18T14:03:47.501Z,20.82
2023-05-18T14:06:15.983Z,20.79
2023-05-18T14:08:44.416Z,20.75
2023-05-18T14:11:12.760Z,20.72
2023-05-18T14:13:41.276Z,20.83
2023-05-18T14:16:10.002Z,20.79
2023-05-18T14:18:39.923Z,20.81
2023-05-18T14:21:08.404Z,20.92
2023-05-18T14:23:36.935Z,21.02
2023-05-18T14:26:05.421Z,20.92
2023-05-18T14:28:33.857Z,20.86
2023-05-18T14:31:02.317Z,20.78
2023-05-18T14:33:30.816Z,20.67
2023-05-18T14:36:01.043Z,20.67
2023-05-18T14:38:29.509Z,20.59
2023-05-18T14:40:57.899Z,20.57
2023-05-18T14:43:26.362Z,20.59
2023-05-18T14:46:07.330Z,20.55
2023-05-18T14:48:37.384Z,20.48
2023-05-18T14:51:07.454Z,20.51
2023-05-18T14:53:35.947Z,20.59
2023-05-18T14:56:08.698Z,20.71
2023-05-18T14:58:37.729Z,20.70
2023-05-18T15:01:06.360Z,20.55
2023-05-18T15:03:35.092Z,20.41
2023-05-18T15:06:03.670Z,20.45
2023-05-18T15:08:34.530Z,20.34
2023-05-18T15:11:03.029Z,20.38
2023-05-18T15:13:32.034Z,20.47
2023-05-18T15:16:00.798Z,20.53
2023-05-18T15:18:29.484Z,20.44
2023-05-18T15:20:57.920Z,20.42
2023-05-18T15:23:27.168Z,20.33
2023-05-18T15:25:56.976Z,20.12
2023-05-18T15:28:25.503Z,19.93
2023-05-18T15:30:54.629Z,19.79
2023-05-18T15:33:23.173Z,19.66
2023-05-18T15:35:51.791Z,19.50
2023-05-18T15:38:20.244Z,19.38
2023-05-18T15:40:50.487Z,19.21
2023-05-18T15:43:20.579Z,19.20
2023-05-18T15:45:49.014Z,19.08
2023-05-18T15:48:17.462Z,19.03
2023-05-18T15:50:46.411Z,19.00
2023-05-18T15:53:16.088Z,18.98
2023-05-18T15:55:44.661Z,18.92
2023-05-18T15:58:14.824Z,18.89
2023-05-18T16:00:44.688Z,18.88
2023-05-18T16:03:14.177Z,18.88
2023-05-18T16:05:42.722Z,18.83
2023-05-18T16:08:11.144Z,18.79
2023-05-18T16:10:39.544Z,18.73
2023-05-18T16:13:08.063Z,18.69
2023-05-18T16:15:38.418Z,18.65
2023-05-18T16:18:08.543Z,18.55
2023-05-18T16:20:36.953Z,18.51
2023-05-18T16:23:06.374Z,18.52
2023-05-18T16:25:34.829Z,18.52
2023-05-18T16:28:03.527Z,18.43
2023-05-18T16:30:32.210Z,18.41
2023-05-18T16:33:00.924Z,18.29
2023-05-18T16:35:31.980Z,18.26
2023-05-18T16:38:00.696Z,18.30
2023-05-18T16:40:29.144Z,18.32
2023-05-18T16:42:57.703Z,18.34
2023-05-18T16:45:27.322Z,18.37
2023-05-18T16:47:55.759Z,18.35
2023-05-18T16:50:24.414Z,18.31
2023-05-18T16:52:54.285Z,18.22
2023-05-18T16:55:23.841Z,18.16
2023-05-18T16:57:52.469Z,18.08
2023-05-18T17:00:22.118Z,18.04
2023-05-18T17:02:52.754Z,17.97
2023-05-18T17:05:23.077Z,17.87
2023-05-18T17:07:54.189Z,17.56
2023-05-18T17:10:22.818Z,17.59
2023-05-18T17:12:51.844Z,17.51
2023-05-18T17:15:21.265Z,17.50
2023-05-18T17:17:49.682Z,17.48
2023-05-18T17:20:18.232Z,17.47
2023-05-18T17:22:46.650Z,17.43
2023-05-18T17:25:16.533Z,17.37
2023-05-18T17:27:45.036Z,17.33
2023-05-18T17:30:13.807Z,17.30
2023-05-18T17:32:42.315Z,17.31
2023-05-18T17:35:13.964Z,17.29
2023-05-18T17:37:42.819Z,17.23
2023-05-18T17:40:11.831Z,17.20
2023-05-18T17:42:41.832Z,17.20
2023-05-18T17:45:11.540Z,17.19
2023-05-18T17:47:41.760Z,17.16
2023-05-18T17:50:10.737Z,17.15
2023-05-18T17:52:39.079Z,17.13
2023-05-18T17:55:08.771Z,17.08
2023-05-18T17:57:37.259Z,17.01
2023-05-18T18:00:09.383Z,16.99
2023-05-18T18:02:40.060Z,16.97
2023-05-18T18:05:09.136Z,17.00
2023-05-18T18:07:37.556Z,16.97
2023-05-18T18:10:06.944Z,16.96
2023-05-18T18:12:35.369Z,16.96
2023-05-18T18:15:03.892Z,16.87
2023-05-18T18:17:33.840Z,16.86
2023-05-18T18:20:02.362Z,16.83
2023-05-18T18:22:31.052Z,16.82
2023-05-18T18:25:00.219Z,16.79
2023-05-18T18:27:29.658Z,16.76
2023-05-18T18:29:58.087Z,16.73
2023-05-18T18:32:26.731Z,16.68
2023-05-18T18:34:56.610Z,16.64
2023-05-18T18:37:25.100Z,16.63
2023-05-18T18:39:53.527Z,16.57
2023-05-18T18:42:22.048Z,16.50
2023-05-18T18:44:53.021Z,16.43
2023-05-18T18:47:21.472Z,16.35
2023-05-18T18:49:49.806Z,16.29
2023-05-18T18:52:19.746Z,16.22
2023-05-18T18:54:48.224Z,16.23
2023-05-18T18:57:16.777Z,16.19
2023-05-18T18:59:45.201Z,16.15
2023-05-18T19:02:13.795Z,16.17
2023-05-18T19:04:42.346Z,16.14
2023-05-18T19:07:10.713Z,16.11
2023-05-18T19:09:40.583Z,16.10
2023-05-18T19:12:09.898Z,16.10
2023-05-18T19:14:38.470Z,16.02
2023-05-18T19:17:06.898Z,16.05
2023-05-18T19:19:37.336Z,16.02
2023-05-18T19:22:06.203Z,16.00
2023-05-18T19:24:34.686Z,15.98
2023-05-18T19:27:04.880Z,15.96
2023-05-18T19:29:36.700Z,15.90
2023-05-18T19:32:08.119Z,15.86
2023-05-18T19:34:36.702Z,15.84
2023-05-18T19:37:05.266Z,15.84
2023-05-18T19:39:33.652Z,15.84
2023-05-18T19:42:02.074Z,15.83
2023-05-18T19:44:32.183Z,15.81
2023-05-18T19:47:01.065Z,15.74
2023-05-18T19:49:29.851Z,15.69
2023-05-18T19:51:58.381Z,15.59
2023-05-18T19:54:27.212Z,15.57
2023-05-18T19:56:55.878Z,15.53
2023-05-18T19:59:24.740Z,15.49
2023-05-18T20:01:57.834Z,15.49
2023-05-18T20:04:28.737Z,15.46
2023-05-18T20:06:58.324Z,15.42
2023-05-18T20:09:26.879Z,15.39
2023-05-18T20:11:56.263Z,15.34
2023-05-18T20:14:24.818Z,15.30
2023-05-18T20:16:56.350Z,15.25
2023-05-18T20:19:25.463Z,15.23
2023-05-18T20:21:53.899Z,14.52
2023-05-18T20:24:22.421Z,15.20
2023-05-18T20:26:50.953Z,16.11
2023-05-18T20:29:19.378Z,15.67
2023-05-18T20:31:48.126Z,15.50
2023-05-18T20:34:19.513Z,15.44
2023-05-18T20:36:48.061Z,15.40
2023-05-18T20:39:16.861Z,15.36
2023-05-18T20:41:45.431Z,15.31
2023-05-18T20:44:17.810Z,15.29
2023-05-18T20:46:48.281Z,15.29
2023-05-18T20:49:17.141Z,15.26
2023-05-18T20:51:46.907Z,15.26
2023-05-18T20:54:15.598Z,15.26
2023-05-18T20:56:43.906Z,15.27
2023-05-18T20:59:12.803Z,15.28
2023-05-18T21:01:42.928Z,15.29
2023-05-18T21:04:13.031Z,15.28
2023-05-18T21:06:44.246Z,15.30
2023-05-18T21:09:14.326Z,15.32
2023-05-18T21:11:42.891Z,15.33
2023-05-18T21:14:11.340Z,15.29
2023-05-18T21:16:40.522Z,15.28
2023-05-18T21:19:09.262Z,15.30
2023-05-18T21:21:37.718Z,14.97
2023-05-18T21:24:06.482Z,15.32
2023-05-18T21:26:36.334Z,15.36
2023-05-18T21:29:05.019Z,15.32
2023-05-18T21:31:33.539Z,15.33
2023-05-18T21:34:02.137Z,15.29
2023-05-18T21:36:34.360Z,15.31
2023-05-18T21:39:04.128Z,15.29
2023-05-18T21:41:34.208Z,15.21
2023-05-18T21:44:04.090Z,15.20
2023-05-18T21:46:32.788Z,15.19
2023-05-18T21:49:02.577Z,15.23
2023-05-18T21:51:32.508Z,15.21
2023-05-18T21:54:02.440Z,15.17
2023-05-18T21:56:31.055Z,15.17
2023-05-18T21:58:59.457Z,15.17
2023-05-18T22:01:30.015Z,15.14
2023-05-18T22:03:58.504Z,15.13
2023-05-18T22:06:26.910Z,15.11
2023-05-18T22:08:55.416Z,15.09
2023-05-18T22:11:24.633Z,15.09
2023-05-18T22:13:53.090Z,15.05
2023-05-18T22:16:21.761Z,15.05
2023-05-18T22:18:51.630Z,15.02
2023-05-18T22:21:20.453Z,14.99
2023-05-18T22:23:48.799Z,14.97
2023-05-18T22:26:17.333Z,14.90
2023-05-18T22:28:45.779Z,14.91
2023-05-18T22:31:14.277Z,14.89
2023-05-18T22:33:42.810Z,14.84
2023-05-18T22:36:12.772Z,14.88
2023-05-18T22:38:43.961Z,14.86
2023-05-18T22:41:12.407Z,14.84
2023-05-18T22:43:40.981Z,14.79
2023-05-18T22:46:09.870Z,14.74
2023-05-18T22:48:39.681Z,14.67
2023-05-18T22:51:08.646Z,14.56
2023-05-18T22:53:38.391Z,14.51
2023-05-18T22:56:07.507Z,14.46
2023-05-18T22:58:35.896Z,14.39
2023-05-18T23:01:04.472Z,14.36
2023-05-18T23:03:32.923Z,14.33
2023-05-18T23:06:03.269Z,14.24
2023-05-18T23:08:36.874Z,14.22
2023-05-18T23:11:07.045Z,14.17
2023-05-18T23:13:37.829Z,14.17
2023-05-18T23:16:10.517Z,14.17
2023-05-18T23:18:39.283Z,14.13
2023-05-18T23:21:09.084Z,14.09
2023-05-18T23:23:37.545Z,14.06
2023-05-18T23:26:07.484Z,14.04
2023-05-18T23:28:35.943Z,14.04
2023-05-18T23:31:04.404Z,14.01
2023-05-18T23:33:33.626Z,14.02
2023-05-18T23:36:04.046Z,14.01
2023-05-18T23:38:38.149Z,13.84
2023-05-18T23:41:09.748Z,14.01
2023-05-18T23:43:38.944Z,14.02
2023-05-18T23:46:10.505Z,14.07
2023-05-18T23:48:39.704Z,14.10
2023-05-18T23:51:11.218Z,14.14
2023-05-18T23:53:40.122Z,14.16
2023-05-18T23:56:12.457Z,14.19
2023-05-18T23:58:43.027Z,14.23
